Time;durP1;ratioP1;P1;durP2;ratioP2;P2;SDS_P1;SDS_P2;PMS_P1;PMS_P2;Temp;Humidity;BMP_temperature;BMP_pressure;BME280_temperature;BME280_humidity;BME280_pressure;Samples;Min_cycle;Max_cycle;Signal;HPM_P1;HPM_P2
2021/04/25 00:02:04;;;;;;;11.48;5.13;;;;;;;;;;5071475;28;20480;-74
2021/04/25 00:04:30;;;;;;;12.32;4.47;;;;;;;;;;5072557;28;20032;-75
2021/04/25 00:06:56;;;;;;;11.18;4.40;;;;;;;;;;5082590;28;20016;-74
2021/04/25 00:09:22;;;;;;;11.15;4.57;;;;;;;;;;5072457;28;20101;-74
2021/04/25 00:11:48;;;;;;;9.57;4.47;;;;;;;;;;5072370;28;20025;-74
2021/04/25 00:14:14;;;;;;;10.15;4.72;;;;;;;;;;5072495;28;20388;-74
2021/04/25 00:16:40;;;;;;;11.88;4.22;;;;;;;;;;5088745;28;20016;-74
2021/04/25 00:19:06;;;;;;;12.27;4.30;;;;;;;;;;5087399;28;20204;-74
2021/04/25 00:21:33;;;;;;;10.68;3.85;;;;;;;;;;5072349;28;20087;-74
2021/04/25 00:24:00;;;;;;;11.38;4.97;;;;;;;;;;5072778;28;20029;-74
2021/04/25 00:26:26;;;;;;;10.25;4.28;;;;;;;;;;5087928;28;20040;-74
2021/04/25 00:28:52;;;;;;;10.80;4.50;;;;;;;;;;5091672;28;20024;-74
2021/04/25 00:31:18;;;;;;;8.93;4.30;;;;;;;;;;5072118;28;20024;-74
2021/04/25 00:33:44;;;;;;;11.25;4.75;;;;;;;;;;5072052;28;20025;-74
2021/04/25 00:36:10;;;;;;;8.70;4.13;;;;;;;;;;5072157;28;20392;-74
2021/04/25 00:38:36;;;;;;;10.50;4.40;;;;;;;;;;5083380;28;20127;-74
2021/04/25 00:41:03;;;;;;;13.68;4.57;;;;;;;;;;5071236;28;20042;-74
2021/04/25 00:43:29;;;;;;;9.77;4.28;;;;;;;;;;5070658;28;20032;-74
2021/04/25 00:45:55;;;;;;;10.70;4.45;;;;;;;;;;5071702;28;20383;-74
2021/04/25 00:48:22;;;;;;;10.18;4.35;;;;;;;;;;5070516;28;20033;-74
2021/04/25 00:50:48;;;;;;;10.80;4.15;;;;;;;;;;5087489;28;20131;-74
2021/04/25 00:53:15;;;;;;;8.60;4.15;;;;;;;;;;5071862;28;20016;-74
2021/04/25 00:55:41;;;;;;;9.07;4.18;;;;;;;;;;5071648;28;20052;-74
2021/04/25 00:58:07;;;;;;;9.40;3.78;;;;;;;;;;5072225;28;20059;-75
2021/04/25 01:00:33;;;;;;;7.82;4.05;;;;;;;;;;5070305;28;20036;-74
2021/04/25 01:02:59;;;;;;;10.15;4.05;;;;;;;;;;5070942;28;20016;-75
2021/04/25 01:05:25;;;;;;;9.38;4.10;;;;;;;;;;5070052;28;20042;-74
2021/04/25 01:07:51;;;;;;;10.88;4.53;;;;;;;;;;5072333;28;20025;-74
2021/04/25 01:10:18;;;;;;;10.05;3.92;;;;;;;;;;5088654;28;20028;-74
2021/04/25 01:12:45;;;;;;;11.30;4.35;;;;;;;;;;5090212;28;20070;-74
2021/04/25 01:15:12;;;;;;;9.20;4.40;;;;;;;;;;5103278;28;20029;-75
2021/04/25 01:17:39;;;;;;;9.00;4.13;;;;;;;;;;5071111;28;20514;-74
2021/04/25 01:20:06;;;;;;;7.80;4.03;;;;;;;;;;5071375;28;20047;-74
2021/04/25 01:22:32;;;;;;;9.15;4.05;;;;;;;;;;5071258;28;20029;-74
2021/04/25 01:24:58;;;;;;;11.77;4.03;;;;;;;;;;5086672;28;20028;-74
2021/04/25 01:27:24;;;;;;;7.65;4.10;;;;;;;;;;5086614;28;20060;-74
2021/04/25 01:29:50;;;;;;;9.05;4.47;;;;;;;;;;5071188;28;20032;-74
2021/04/25 01:32:16;;;;;;;9.50;4.22;;;;;;;;;;5090097;28;20577;-74
2021/04/25 01:34:43;;;;;;;7.85;3.88;;;;;;;;;;5089858;28;20028;-74
2021/04/25 01:37:09;;;;;;;12.35;4.00;;;;;;;;;;5090937;28;20022;-74
2021/04/25 01:39:35;;;;;;;8.98;3.97;;;;;;;;;;5088601;28;20020;-74
2021/04/25 01:42:01;;;;;;;8.18;4.05;;;;;;;;;;5083479;28;20051;-74
2021/04/25 01:44:27;;;;;;;9.15;4.22;;;;;;;;;;5089657;28;20063;-74
2021/04/25 01:46:53;;;;;;;8.27;3.92;;;;;;;;;;5089973;28;20062;-74
2021/04/25 01:49:19;;;;;;;8.85;3.88;;;;;;;;;;5090959;28;20020;-75
2021/04/25 01:51:45;;;;;;;14.07;4.20;;;;;;;;;;5073283;28;20040;-74
2021/04/25 01:54:12;;;;;;;8.15;3.92;;;;;;;;;;5086249;28;20115;-74
2021/04/25 01:56:38;;;;;;;8.80;3.45;;;;;;;;;;5070474;28;20085;-74
2021/04/25 01:59:04;;;;;;;9.20;3.63;;;;;;;;;;5070618;28;20442;-74
2021/04/25 02:01:31;;;;;;;8.55;3.80;;;;;;;;;;5082325;28;20108;-74
2021/04/25 02:03:57;;;;;;;9.20;3.90;;;;;;;;;;5089586;28;20032;-74
2021/04/25 02:06:23;;;;;;;8.75;3.55;;;;;;;;;;5089379;28;20035;-74
2021/04/25 02:08:49;;;;;;;9.90;3.65;;;;;;;;;;5090671;28;20031;-74
2021/04/25 02:11:16;;;;;;;8.02;3.47;;;;;;;;;;5081601;28;20040;-74
2021/04/25 02:13:42;;;;;;;8.43;3.67;;;;;;;;;;5070224;28;20029;-74
2021/04/25 02:16:08;;;;;;;6.57;3.10;;;;;;;;;;5084893;28;20062;-74
2021/04/25 02:18:34;;;;;;;8.13;3.60;;;;;;;;;;5085879;28;20032;-74
2021/04/25 02:21:00;;;;;;;8.93;3.20;;;;;;;;;;5070240;28;20021;-74
2021/04/25 02:23:26;;;;;;;6.32;3.10;;;;;;;;;;5070337;28;20094;-74
2021/04/25 02:25:53;;;;;;;8.70;3.35;;;;;;;;;;5070128;28;20551;-74
2021/04/25 02:28:19;;;;;;;6.63;3.55;;;;;;;;;;5069450;28;20069;-74
2021/04/25 02:30:45;;;;;;;8.50;3.50;;;;;;;;;;5090501;28;20031;-74
2021/04/25 02:33:12;;;;;;;5.45;3.22;;;;;;;;;;5072609;28;20028;-74
2021/04/25 02:35:38;;;;;;;9.38;3.40;;;;;;;;;;5069912;28;20020;-74
2021/04/25 02:38:04;;;;;;;7.03;3.10;;;;;;;;;;5071513;28;20171;-74
2021/04/25 02:40:32;;;;;;;7.05;3.63;;;;;;;;;;5089635;28;20120;-74
2021/04/25 02:42:58;;;;;;;8.30;3.72;;;;;;;;;;5076502;28;20130;-74
2021/04/25 02:45:25;;;;;;;7.18;3.20;;;;;;;;;;5085493;28;20037;-74
2021/04/25 02:47:56;;;;;;;9.13;3.42;;;;;;;;;;5070082;28;20024;-75
2021/04/25 02:50:23;;;;;;;7.18;3.13;;;;;;;;;;5070139;28;20490;-74
2021/04/25 02:52:50;;;;;;;9.80;3.42;;;;;;;;;;5085337;28;20028;-74
2021/04/25 02:55:16;;;;;;;17.55;3.58;;;;;;;;;;5070376;28;20074;-74
2021/04/25 02:57:42;;;;;;;8.07;3.40;;;;;;;;;;5090052;28;20013;-74
2021/04/25 03:00:10;;;;;;;8.07;2.92;;;;;;;;;;5088739;28;20028;-74
2021/04/25 03:02:36;;;;;;;8.13;3.15;;;;;;;;;;5068327;28;20055;-74
2021/04/25 03:05:03;;;;;;;6.32;3.00;;;;;;;;;;5068649;28;20479;-74
2021/04/25 03:07:29;;;;;;;8.50;3.25;;;;;;;;;;5068637;28;20068;-74
2021/04/25 03:09:55;;;;;;;8.45;3.60;;;;;;;;;;5068359;28;20031;-74
2021/04/25 03:12:21;;;;;;;7.60;3.58;;;;;;;;;;5069014;28;20052;-74
2021/04/25 03:14:47;;;;;;;5.47;2.97;;;;;;;;;;5085347;28;20031;-74
2021/04/25 03:17:13;;;;;;;7.47;3.42;;;;;;;;;;5069303;28;20032;-75
2021/04/25 03:19:39;;;;;;;11.32;3.45;;;;;;;;;;5074454;28;20534;-74
2021/04/25 03:22:06;;;;;;;9.13;3.78;;;;;;;;;;5087908;28;20568;-74
2021/04/25 03:24:32;;;;;;;7.15;3.70;;;;;;;;;;5088258;28;20378;-74
2021/04/25 03:27:00;;;;;;;10.02;3.33;;;;;;;;;;5089761;28;20032;-74
2021/04/25 03:29:26;;;;;;;11.13;3.20;;;;;;;;;;5092424;28;20048;-74
2021/04/25 03:31:52;;;;;;;6.18;3.28;;;;;;;;;;5106553;28;20056;-74
2021/04/25 03:34:18;;;;;;;8.18;3.60;;;;;;;;;;5093096;28;20016;-74
2021/04/25 03:36:44;;;;;;;6.47;3.22;;;;;;;;;;5091616;28;20031;-74
2021/04/25 03:39:11;;;;;;;10.93;3.50;;;;;;;;;;5091546;28;20024;-74
2021/04/25 03:41:37;;;;;;;7.13;2.88;;;;;;;;;;5107339;28;20181;-74
2021/04/25 03:44:03;;;;;;;6.45;2.97;;;;;;;;;;5112301;28;20051;-74
2021/04/25 03:46:29;;;;;;;7.55;2.95;;;;;;;;;;5105151;28;20627;-74
2021/04/25 03:48:56;;;;;;;6.28;2.80;;;;;;;;;;5093463;28;20467;-74
2021/04/25 03:51:22;;;;;;;6.60;3.30;;;;;;;;;;5091831;28;20051;-74
2021/04/25 03:53:48;;;;;;;6.70;3.20;;;;;;;;;;5091743;28;20039;-74
2021/04/25 03:56:14;;;;;;;6.82;3.20;;;;;;;;;;5080491;28;20031;-74
2021/04/25 03:58:41;;;;;;;7.35;2.63;;;;;;;;;;5072800;28;20025;-74
2021/04/25 04:01:07;;;;;;;8.88;3.00;;;;;;;;;;5088189;28;20140;-74
2021/04/25 04:03:33;;;;;;;7.40;3.50;;;;;;;;;;5071902;28;20534;-74
2021/04/25 04:05:59;;;;;;;6.43;3.22;;;;;;;;;;5072576;28;20036;-74
2021/04/25 04:08:25;;;;;;;8.73;3.55;;;;;;;;;;5072748;28;20020;-74
2021/04/25 04:10:51;;;;;;;8.68;3.92;;;;;;;;;;5122042;27;20036;-74
2021/04/25 04:13:17;;;;;;;8.82;3.33;;;;;;;;;;5111885;28;20717;-74
2021/04/25 04:15:43;;;;;;;9.70;3.60;;;;;;;;;;5113095;27;20638;-74
2021/04/25 04:18:09;;;;;;;11.90;3.67;;;;;;;;;;5111920;28;20485;-74
2021/04/25 04:20:35;;;;;;;11.27;3.45;;;;;;;;;;5099716;28;20499;-75
2021/04/25 04:23:01;;;;;;;8.65;3.15;;;;;;;;;;5092594;28;20506;-74
2021/04/25 04:25:27;;;;;;;7.28;3.25;;;;;;;;;;5092424;28;20418;-74
2021/04/25 04:27:53;;;;;;;8.85;3.63;;;;;;;;;;5092158;28;20498;-74
2021/04/25 04:30:19;;;;;;;10.18;3.58;;;;;;;;;;5088266;28;20084;-74
2021/04/25 04:32:45;;;;;;;7.60;3.35;;;;;;;;;;5112556;28;20043;-75
2021/04/25 04:35:11;;;;;;;8.77;3.08;;;;;;;;;;5112762;28;20028;-75
2021/04/25 04:37:37;;;;;;;7.00;3.47;;;;;;;;;;5096367;28;20371;-75
2021/04/25 04:40:04;;;;;;;6.40;3.08;;;;;;;;;;5073952;28;20032;-74
2021/04/25 04:42:30;;;;;;;10.88;3.30;;;;;;;;;;5090872;28;20040;-74
2021/04/25 04:44:56;;;;;;;8.82;4.00;;;;;;;;;;5090685;28;20393;-74
2021/04/25 04:47:22;;;;;;;10.63;4.30;;;;;;;;;;5091953;28;20062;-75
2021/04/25 04:49:48;;;;;;;8.88;3.83;;;;;;;;;;5091999;28;20015;-74
2021/04/25 04:52:14;;;;;;;10.85;4.18;;;;;;;;;;5107293;28;20484;-74
2021/04/25 04:54:42;;;;;;;10.27;4.00;;;;;;;;;;5103780;28;20039;-74
2021/04/25 04:57:08;;;;;;;9.45;3.70;;;;;;;;;;5071793;28;20060;-74
2021/04/25 04:59:34;;;;;;;8.50;3.90;;;;;;;;;;5102800;27;20027;-74
2021/04/25 05:02:00;;;;;;;8.07;3.30;;;;;;;;;;5112266;28;20032;-75
2021/04/25 05:04:26;;;;;;;8.02;3.80;;;;;;;;;;5112186;28;20053;-75
2021/04/25 05:06:52;;;;;;;9.15;3.92;;;;;;;;;;5112198;28;20027;-75
2021/04/25 05:09:18;;;;;;;7.47;3.35;;;;;;;;;;5109034;27;20032;-75
2021/04/25 05:11:44;;;;;;;7.47;3.88;;;;;;;;;;5081731;28;20024;-74
2021/04/25 05:14:10;;;;;;;10.00;4.07;;;;;;;;;;5070034;28;20021;-75
2021/04/25 05:16:36;;;;;;;8.35;4.05;;;;;;;;;;5071473;28;20029;-74
2021/04/25 05:19:03;;;;;;;9.23;3.90;;;;;;;;;;5070158;28;20027;-75
2021/04/25 05:21:29;;;;;;;10.32;4.40;;;;;;;;;;5070117;28;20033;-75
2021/04/25 05:23:55;;;;;;;10.02;4.72;;;;;;;;;;5071208;28;20107;-75
2021/04/25 05:26:21;;;;;;;9.95;4.78;;;;;;;;;;5069586;28;20086;-74
2021/04/25 05:28:47;;;;;;;8.93;4.40;;;;;;;;;;5071621;28;20745;-74
2021/04/25 05:31:13;;;;;;;9.65;4.43;;;;;;;;;;5112523;27;20080;-75
2021/04/25 05:33:39;;;;;;;13.57;5.57;;;;;;;;;;5110040;28;20079;-75
2021/04/25 05:36:05;;;;;;;17.20;5.78;;;;;;;;;;5110316;28;20055;-74
2021/04/25 05:38:31;;;;;;;14.73;6.70;;;;;;;;;;5111442;28;20089;-74
2021/04/25 05:40:57;;;;;;;16.65;6.55;;;;;;;;;;5103474;28;20384;-75
2021/04/25 05:43:23;;;;;;;12.20;5.30;;;;;;;;;;5089852;28;20028;-75
2021/04/25 05:45:50;;;;;;;13.95;6.28;;;;;;;;;;5080098;28;20078;-75
2021/04/25 05:48:16;;;;;;;12.60;5.55;;;;;;;;;;5070861;28;20027;-75
2021/04/25 05:50:42;;;;;;;11.20;4.70;;;;;;;;;;5075617;28;20032;-75
2021/04/25 05:53:08;;;;;;;10.88;4.57;;;;;;;;;;5104383;28;20482;-75
2021/04/25 05:55:34;;;;;;;10.75;5.00;;;;;;;;;;5083795;28;20063;-74
2021/04/25 05:58:00;;;;;;;12.77;4.90;;;;;;;;;;5070357;28;20032;-74
2021/04/25 06:00:28;;;;;;;13.25;5.65;;;;;;;;;;5070722;28;20376;-75
2021/04/25 06:02:54;;;;;;;13.77;7.60;;;;;;;;;;5095038;28;20120;-75
2021/04/25 06:05:20;;;;;;;19.27;7.90;;;;;;;;;;5090563;28;20036;-74
2021/04/25 06:07:50;;;;;;;13.32;6.93;;;;;;;;;;5090688;28;20463;-75
2021/04/25 06:10:16;;;;;;;18.10;7.50;;;;;;;;;;5090951;28;20154;-74
2021/04/25 06:12:43;;;;;;;18.35;8.40;;;;;;;;;;5091609;28;20054;-75
2021/04/25 06:15:09;;;;;;;19.52;9.73;;;;;;;;;;5089417;28;20024;-74
2021/04/25 06:17:35;;;;;;;18.75;9.10;;;;;;;;;;5089168;28;20031;-74
2021/04/25 06:20:01;;;;;;;17.08;9.30;;;;;;;;;;5089682;28;20020;-75
2021/04/25 06:22:27;;;;;;;19.58;9.50;;;;;;;;;;5090536;28;20438;-75
2021/04/25 06:24:55;;;;;;;20.15;10.02;;;;;;;;;;5090573;28;20115;-75
2021/04/25 06:27:25;;;;;;;17.35;9.90;;;;;;;;;;5089238;28;20028;-74
2021/04/25 06:29:52;;;;;;;16.65;9.90;;;;;;;;;;5076923;28;20656;-75
2021/04/25 06:32:18;;;;;;;15.85;9.15;;;;;;;;;;5077055;28;20103;-75
2021/04/25 06:34:44;;;;;;;16.13;9.18;;;;;;;;;;5101753;28;20046;-75
2021/04/25 06:37:10;;;;;;;19.23;10.80;;;;;;;;;;5076677;28;20027;-74
2021/04/25 06:39:36;;;;;;;19.83;8.98;;;;;;;;;;5068552;28;20027;-75
2021/04/25 06:42:03;;;;;;;16.10;8.98;;;;;;;;;;5068101;28;20056;-74
2021/04/25 06:44:29;;;;;;;16.55;9.45;;;;;;;;;;5095295;28;20020;-74
2021/04/25 06:46:55;;;;;;;20.45;8.73;;;;;;;;;;5088267;28;20020;-75
2021/04/25 06:49:22;;;;;;;21.02;8.65;;;;;;;;;;5088065;28;20021;-75
2021/04/25 06:51:48;;;;;;;16.05;8.40;;;;;;;;;;5087727;28;20024;-74
2021/04/25 06:54:14;;;;;;;16.35;7.88;;;;;;;;;;5089381;28;20071;-74
2021/04/25 06:56:40;;;;;;;19.08;7.97;;;;;;;;;;5073067;28;20024;-74
2021/04/25 06:59:07;;;;;;;15.20;8.30;;;;;;;;;;5070434;28;20153;-76
2021/04/25 07:01:33;;;;;;;17.08;7.50;;;;;;;;;;5090609;28;20108;-73
2021/04/25 07:03:59;;;;;;;15.80;6.70;;;;;;;;;;5094349;28;20028;-74
2021/04/25 07:06:25;;;;;;;11.43;5.85;;;;;;;;;;5094465;28;20484;-74
2021/04/25 07:08:51;;;;;;;22.55;6.55;;;;;;;;;;5094450;28;20024;-73
2021/04/25 07:11:17;;;;;;;12.88;5.88;;;;;;;;;;5093439;28;20497;-74
2021/04/25 07:13:44;;;;;;;10.57;6.13;;;;;;;;;;5105869;28;20536;-73
2021/04/25 07:16:11;;;;;;;10.98;5.43;;;;;;;;;;5094133;28;20032;-74
2021/04/25 07:18:37;;;;;;;11.35;5.45;;;;;;;;;;5094096;28;20012;-74
2021/04/25 07:21:04;;;;;;;12.05;6.00;;;;;;;;;;5092917;28;20474;-74
2021/04/25 07:23:30;;;;;;;32.08;10.68;;;;;;;;;;5092950;28;20107;-72
2021/04/25 07:25:56;;;;;;;31.83;10.20;;;;;;;;;;5093957;28;20066;-73
2021/04/25 07:28:25;;;;;;;36.92;10.93;;;;;;;;;;5093496;28;20024;-76
2021/04/25 07:30:51;;;;;;;26.45;9.40;;;;;;;;;;5092920;28;20107;-73
2021/04/25 07:33:18;;;;;;;31.75;11.27;;;;;;;;;;5094058;28;20020;-71
2021/04/25 07:35:44;;;;;;;27.10;11.00;;;;;;;;;;5092439;28;20048;-72
2021/04/25 07:38:11;;;;;;;37.88;10.02;;;;;;;;;;5094060;28;20073;-71
2021/04/25 07:40:38;;;;;;;24.02;9.43;;;;;;;;;;5092785;28;20031;-71
2021/04/25 07:43:05;;;;;;;46.22;12.10;;;;;;;;;;5091998;28;20032;-73
2021/04/25 07:45:31;;;;;;;23.80;8.85;;;;;;;;;;5092726;28;20036;-72
2021/04/25 07:47:57;;;;;;;22.50;8.85;;;;;;;;;;5092198;28;20020;-72
2021/04/25 07:50:23;;;;;;;23.50;8.18;;;;;;;;;;5093612;28;20478;-71
2021/04/25 07:52:50;;;;;;;25.05;8.55;;;;;;;;;;5093559;28;20027;-71
2021/04/25 07:55:16;;;;;;;23.35;7.85;;;;;;;;;;5087550;28;20399;-72
2021/04/25 07:57:42;;;;;;;19.10;7.55;;;;;;;;;;5080425;28;20089;-74
2021/04/25 08:00:10;;;;;;;17.05;6.55;;;;;;;;;;5092124;28;20027;-72
2021/04/25 08:02:36;;;;;;;20.50;7.32;;;;;;;;;;5092631;28;20028;-71
2021/04/25 08:05:02;;;;;;;21.50;6.95;;;;;;;;;;5093536;28;20024;-72
2021/04/25 08:07:28;;;;;;;22.52;6.57;;;;;;;;;;5091625;28;20427;-72
2021/04/25 08:09:54;;;;;;;16.98;6.68;;;;;;;;;;5093320;28;20039;-72
2021/04/25 08:12:20;;;;;;;20.05;7.40;;;;;;;;;;5093346;28;20016;-75
2021/04/25 08:14:46;;;;;;;25.48;6.90;;;;;;;;;;5092132;28;20031;-74
2021/04/25 08:17:12;;;;;;;30.80;7.43;;;;;;;;;;5087621;28;20025;-75
2021/04/25 08:19:38;;;;;;;23.35;6.93;;;;;;;;;;5086755;28;20078;-73
2021/04/25 08:22:06;;;;;;;19.73;8.00;;;;;;;;;;5092601;28;20034;-73
2021/04/25 08:24:32;;;;;;;48.65;8.18;;;;;;;;;;5091793;28;20024;-76
2021/04/25 08:26:58;;;;;;;25.38;7.35;;;;;;;;;;5108918;28;20050;-75
2021/04/25 08:29:24;;;;;;;23.58;7.00;;;;;;;;;;5093051;28;20047;-74
2021/04/25 08:31:51;;;;;;;28.58;7.05;;;;;;;;;;5090067;28;20686;-72
2021/04/25 08:34:17;;;;;;;25.77;6.15;;;;;;;;;;5090222;28;20035;-72
2021/04/25 08:36:43;;;;;;;23.33;6.85;;;;;;;;;;5076374;28;20019;-72
2021/04/25 08:39:09;;;;;;;23.85;7.07;;;;;;;;;;5072481;28;20024;-72
2021/04/25 08:41:35;;;;;;;26.38;6.60;;;;;;;;;;5072053;28;20814;-72
2021/04/25 08:44:02;;;;;;;18.67;5.55;;;;;;;;;;5089122;28;20024;-72
2021/04/25 08:46:29;;;;;;;18.65;5.70;;;;;;;;;;5079815;28;20539;-72
2021/04/25 08:48:55;;;;;;;15.10;5.18;;;;;;;;;;5072474;28;20391;-72
2021/04/25 08:51:22;;;;;;;21.35;6.45;;;;;;;;;;5070932;28;20116;-76
2021/04/25 08:53:49;;;;;;;16.38;5.78;;;;;;;;;;5088501;28;20421;-75
2021/04/25 08:56:15;;;;;;;11.77;4.68;;;;;;;;;;5091264;28;20028;-72
2021/04/25 08:58:45;;;;;;;16.50;6.07;;;;;;;;;;5092602;28;20082;-73
2021/04/25 09:01:12;;;;;;;24.13;5.97;;;;;;;;;;5092255;28;20428;-74
2021/04/25 09:03:38;;;;;;;20.63;5.80;;;;;;;;;;5091995;28;20016;-72
2021/04/25 09:06:06;;;;;;;17.80;6.15;;;;;;;;;;5090619;28;20031;-73
2021/04/25 09:08:44;;;;;;;15.73;6.00;;;;;;;;;;5090690;28;20016;-73
2021/04/25 09:11:29;;;;;;;15.43;4.93;;;;;;;;;;5071141;28;20316;-72
2021/04/25 09:14:15;;;;;;;12.45;5.32;;;;;;;;;;5071891;28;20020;-73
2021/04/25 09:16:41;;;;;;;11.23;5.05;;;;;;;;;;5102411;28;20024;-73
2021/04/25 09:19:07;;;;;;;9.85;4.25;;;;;;;;;;5076333;28;20047;-72
2021/04/25 09:21:33;;;;;;;12.73;5.22;;;;;;;;;;5092156;28;20024;-73
2021/04/25 09:24:25;;;;;;;12.25;4.97;;;;;;;;;;5091435;28;20126;-74
2021/04/25 09:26:52;;;;;;;11.40;4.80;;;;;;;;;;5087049;28;20081;-72
2021/04/25 09:29:20;;;;;;;11.95;5.50;;;;;;;;;;5093551;28;20062;-75
2021/04/25 09:31:46;;;;;;;10.35;4.75;;;;;;;;;;5112054;28;20635;-72
2021/04/25 09:34:12;;;;;;;8.98;4.72;;;;;;;;;;5112228;27;20049;-73
2021/04/25 09:36:39;;;;;;;14.85;5.10;;;;;;;;;;5097872;28;20034;-74
2021/04/25 09:39:13;;;;;;;10.52;4.82;;;;;;;;;;5092054;28;20016;-73
2021/04/25 09:41:39;;;;;;;14.57;4.57;;;;;;;;;;5093710;28;20129;-72
2021/04/25 09:44:06;;;;;;;10.52;4.63;;;;;;;;;;5097798;28;20047;-72
2021/04/25 09:46:52;;;;;;;9.52;3.45;;;;;;;;;;5089791;28;20040;-72
2021/04/25 09:49:37;;;;;;;8.57;3.60;;;;;;;;;;5090274;28;20020;-74
2021/04/25 09:52:03;;;;;;;8.23;3.80;;;;;;;;;;5092433;28;20061;-74
2021/04/25 09:54:29;;;;;;;8.85;3.45;;;;;;;;;;5090275;28;20028;-72
2021/04/25 09:56:55;;;;;;;9.13;4.20;;;;;;;;;;5086492;28;20020;-72
2021/04/25 09:59:21;;;;;;;8.00;3.67;;;;;;;;;;5091471;28;20032;-72
2021/04/25 10:01:47;;;;;;;8.57;3.60;;;;;;;;;;5090197;28;20023;-72
2021/04/25 10:04:26;;;;;;;8.30;3.85;;;;;;;;;;5091292;28;20028;-72
2021/04/25 10:06:53;;;;;;;7.22;3.08;;;;;;;;;;5083711;28;20032;-72
2021/04/25 10:09:20;;;;;;;7.30;3.45;;;;;;;;;;5100831;28;20035;-73
2021/04/25 10:11:47;;;;;;;6.95;3.58;;;;;;;;;;5106815;28;20030;-73
2021/04/25 10:14:14;;;;;;;7.00;3.50;;;;;;;;;;5090109;28;20032;-72
2021/04/25 10:16:41;;;;;;;8.23;3.38;;;;;;;;;;5090896;28;20016;-72
2021/04/25 10:19:11;;;;;;;6.28;2.90;;;;;;;;;;5090432;28;20028;-72
2021/04/25 10:21:37;;;;;;;6.07;3.00;;;;;;;;;;5101088;28;20027;-72
2021/04/25 10:24:07;;;;;;;5.53;2.80;;;;;;;;;;5089600;28;20020;-73
2021/04/25 10:26:52;;;;;;;6.18;3.10;;;;;;;;;;5089679;28;20555;-75
2021/04/25 10:29:23;;;;;;;7.35;2.80;;;;;;;;;;5099345;28;20486;-78
2021/04/25 10:31:49;;;;;;;7.43;3.47;;;;;;;;;;5079050;28;20040;-76
2021/04/25 10:34:20;;;;;;;4.82;2.63;;;;;;;;;;5072443;28;20027;-72
2021/04/25 10:36:46;;;;;;;7.50;3.10;;;;;;;;;;5095340;28;20012;-73
2021/04/25 10:39:31;;;;;;;8.48;3.55;;;;;;;;;;5081708;28;20024;-71
2021/04/25 10:42:15;;;;;;;6.70;3.03;;;;;;;;;;5074611;28;20076;-72
2021/04/25 10:45:03;;;;;;;6.75;3.28;;;;;;;;;;5075540;28;20034;-70
2021/04/25 10:47:32;;;;;;;5.65;3.10;;;;;;;;;;5074693;28;20021;-70
2021/04/25 10:50:00;;;;;;;7.07;3.10;;;;;;;;;;5075893;28;20081;-70
2021/04/25 10:52:26;;;;;;;8.50;3.33;;;;;;;;;;5104857;27;20471;-69
2021/04/25 10:55:11;;;;;;;8.82;2.80;;;;;;;;;;5074445;28;20028;-69
2021/04/25 10:58:07;;;;;;;6.38;2.83;;;;;;;;;;5072937;28;20033;-72
2021/04/25 11:03:04;;;;;;;5.05;2.85;;;;;;;;;;5094745;28;20020;-73
2021/04/25 11:05:36;;;;;;;4.80;2.60;;;;;;;;;;5094751;28;20028;-71
2021/04/25 11:08:03;;;;;;;5.60;2.80;;;;;;;;;;5093821;28;20038;-73
2021/04/25 11:10:48;;;;;;;5.82;2.38;;;;;;;;;;5075633;28;20043;-72
2021/04/25 11:13:35;;;;;;;4.90;2.35;;;;;;;;;;5097069;27;20016;-72
2021/04/25 11:16:05;;;;;;;6.15;2.55;;;;;;;;;;5114790;28;20058;-74
2021/04/25 11:18:51;;;;;;;5.38;2.60;;;;;;;;;;5114667;28;20020;-72
2021/04/25 11:21:40;;;;;;;5.65;2.30;;;;;;;;;;5095003;28;20016;-72
2021/04/25 11:24:09;;;;;;;5.50;2.50;;;;;;;;;;5079750;28;20032;-72
2021/04/25 11:29:11;;;;;;;4.97;2.15;;;;;;;;;;5103831;28;20048;-69
2021/04/25 11:31:47;;;;;;;4.60;2.30;;;;;;;;;;5094124;28;20232;-70
2021/04/25 11:34:31;;;;;;;6.32;2.65;;;;;;;;;;5086748;28;20021;-71
2021/04/25 11:37:01;;;;;;;5.88;2.72;;;;;;;;;;5096455;28;20103;-69
2021/04/25 11:39:28;;;;;;;5.70;2.08;;;;;;;;;;5073868;28;20021;-70
2021/04/25 11:41:54;;;;;;;4.03;2.22;;;;;;;;;;5072970;28;20399;-70
2021/04/25 11:44:23;;;;;;;4.70;2.45;;;;;;;;;;5092997;27;20063;-72
2021/04/25 11:46:49;;;;;;;4.88;2.22;;;;;;;;;;5072911;28;20032;-73
2021/04/25 11:49:16;;;;;;;6.03;2.40;;;;;;;;;;5073782;28;20025;-72
2021/04/25 11:51:42;;;;;;;7.80;2.60;;;;;;;;;;5101495;28;20024;-70
2021/04/25 11:54:21;;;;;;;6.93;2.92;;;;;;;;;;5091049;28;20106;-71
2021/04/25 11:56:47;;;;;;;5.53;2.67;;;;;;;;;;5080616;28;20127;-70
2021/04/25 11:59:16;;;;;;;4.68;2.38;;;;;;;;;;5086142;28;20043;-72
2021/04/25 12:01:42;;;;;;;5.05;2.22;;;;;;;;;;5092473;28;20062;-70
2021/04/25 12:04:08;;;;;;;4.65;2.22;;;;;;;;;;5094527;28;20056;-70
2021/04/25 12:06:50;;;;;;;4.70;2.47;;;;;;;;;;5093307;28;20042;-72
2021/04/25 12:09:16;;;;;;;6.32;2.75;;;;;;;;;;5093494;28;20070;-70
2021/04/25 12:11:43;;;;;;;6.47;2.92;;;;;;;;;;5093500;28;20031;-74
2021/04/25 12:14:21;;;;;;;4.13;2.20;;;;;;;;;;5089040;28;20154;-72
2021/04/25 12:16:47;;;;;;;4.90;2.55;;;;;;;;;;5073597;28;20032;-72
2021/04/25 12:19:26;;;;;;;5.07;2.50;;;;;;;;;;5073120;28;20442;-73
2021/04/25 12:21:58;;;;;;;4.82;2.65;;;;;;;;;;5088661;28;20486;-71
2021/04/25 12:24:24;;;;;;;5.72;2.70;;;;;;;;;;5088819;28;20040;-71
2021/04/25 12:26:50;;;;;;;6.38;2.30;;;;;;;;;;5072920;28;20040;-72
2021/04/25 12:29:32;;;;;;;4.57;2.60;;;;;;;;;;5088348;28;20131;-73
2021/04/25 12:31:58;;;;;;;5.20;2.20;;;;;;;;;;5088560;28;20028;-72
2021/04/25 12:34:28;;;;;;;5.07;2.58;;;;;;;;;;5074424;28;20035;-71
2021/04/25 12:36:54;;;;;;;8.73;3.00;;;;;;;;;;5088225;28;20033;-71
2021/04/25 12:39:20;;;;;;;4.20;2.25;;;;;;;;;;5072669;28;20024;-71
2021/04/25 12:41:47;;;;;;;5.30;2.60;;;;;;;;;;5072207;28;20486;-72
2021/04/25 12:44:15;;;;;;;6.13;2.80;;;;;;;;;;5073229;28;20107;-74
2021/04/25 12:46:52;;;;;;;5.47;2.45;;;;;;;;;;5078727;28;20073;-72
2021/04/25 12:49:18;;;;;;;6.50;2.95;;;;;;;;;;5092275;28;20104;-73
2021/04/25 12:51:46;;;;;;;7.63;3.53;;;;;;;;;;5091907;28;20406;-72
2021/04/25 12:54:19;;;;;;;4.88;2.60;;;;;;;;;;5089574;28;20522;-71
2021/04/25 12:56:52;;;;;;;5.13;3.10;;;;;;;;;;5072366;28;20102;-71
2021/04/25 12:59:21;;;;;;;5.72;2.58;;;;;;;;;;5071444;28;20020;-71
2021/04/25 13:01:56;;;;;;;5.32;2.58;;;;;;;;;;5072362;28;20025;-71
2021/04/25 13:04:31;;;;;;;6.53;2.85;;;;;;;;;;5078828;28;20031;-72
2021/04/25 13:07:15;;;;;;;6.07;2.95;;;;;;;;;;5090955;28;20119;-71
2021/04/25 13:09:42;;;;;;;6.38;2.90;;;;;;;;;;5071999;28;20016;-74
2021/04/25 13:12:17;;;;;;;5.13;2.80;;;;;;;;;;5087760;28;20024;-72
2021/04/25 13:15:03;;;;;;;4.93;2.63;;;;;;;;;;5072311;28;20471;-72
2021/04/25 13:17:31;;;;;;;5.63;2.88;;;;;;;;;;5071957;28;20034;-72
2021/04/25 13:19:58;;;;;;;4.05;2.55;;;;;;;;;;5072035;28;20047;-71
2021/04/25 13:22:24;;;;;;;8.00;3.35;;;;;;;;;;5071899;28;20387;-72
2021/04/25 13:24:51;;;;;;;5.97;3.25;;;;;;;;;;5076314;28;20047;-70
2021/04/25 13:27:18;;;;;;;5.32;3.25;;;;;;;;;;5076605;28;20032;-71
2021/04/25 13:29:46;;;;;;;5.40;3.00;;;;;;;;;;5071773;28;20024;-73
2021/04/25 13:32:12;;;;;;;5.18;2.80;;;;;;;;;;5071764;28;20026;-72
2021/04/25 13:34:38;;;;;;;6.75;3.28;;;;;;;;;;5071670;28;20074;-75
2021/04/25 13:37:06;;;;;;;6.15;3.10;;;;;;;;;;5091299;28;20024;-71
2021/04/25 13:39:32;;;;;;;5.00;2.90;;;;;;;;;;5090195;28;20023;-71
2021/04/25 13:41:58;;;;;;;5.50;2.60;;;;;;;;;;5090645;28;20478;-72
2021/04/25 13:44:24;;;;;;;5.47;2.95;;;;;;;;;;5090863;28;20028;-72
2021/04/25 13:46:51;;;;;;;5.47;2.92;;;;;;;;;;5085155;28;20028;-74
2021/04/25 13:49:18;;;;;;;6.22;3.47;;;;;;;;;;5071162;28;20040;-71
2021/04/25 13:51:44;;;;;;;6.30;3.13;;;;;;;;;;5071346;28;20562;-71
2021/04/25 13:54:10;;;;;;;4.72;2.53;;;;;;;;;;5071611;28;20028;-73
2021/04/25 13:56:36;;;;;;;6.55;3.20;;;;;;;;;;5071260;28;20119;-72
2021/04/25 13:59:03;;;;;;;5.45;2.75;;;;;;;;;;5080124;28;20028;-71
2021/04/25 14:01:30;;;;;;;7.38;3.00;;;;;;;;;;5091409;28;20471;-71
2021/04/25 14:03:56;;;;;;;6.43;2.95;;;;;;;;;;5090123;28;20467;-72
2021/04/25 14:06:22;;;;;;;6.03;3.25;;;;;;;;;;5071130;28;20036;-73
2021/04/25 14:08:48;;;;;;;7.63;3.10;;;;;;;;;;5071306;28;20032;-75
2021/04/25 14:11:17;;;;;;;6.03;3.05;;;;;;;;;;5070952;28;20028;-74
2021/04/25 14:13:43;;;;;;;4.82;2.75;;;;;;;;;;5070861;28;20009;-72
2021/04/25 14:16:09;;;;;;;7.53;3.10;;;;;;;;;;5072104;28;20399;-71
2021/04/25 14:18:35;;;;;;;4.88;2.83;;;;;;;;;;5070893;28;20119;-71
2021/04/25 14:21:01;;;;;;;7.40;3.05;;;;;;;;;;5070932;28;20498;-72
2021/04/25 14:23:28;;;;;;;6.20;2.72;;;;;;;;;;5086294;28;20029;-70
2021/04/25 14:25:55;;;;;;;4.75;2.83;;;;;;;;;;5071132;28;20043;-72
2021/04/25 14:28:21;;;;;;;6.03;3.20;;;;;;;;;;5070911;28;20024;-72
2021/04/25 14:30:47;;;;;;;5.88;3.00;;;;;;;;;;5070918;28;20052;-72
2021/04/25 14:33:14;;;;;;;5.93;3.10;;;;;;;;;;5071170;28;20013;-71
2021/04/25 14:35:40;;;;;;;5.75;3.08;;;;;;;;;;5089579;28;20060;-71
2021/04/25 14:38:06;;;;;;;7.00;2.95;;;;;;;;;;5069274;28;20375;-72
2021/04/25 14:40:32;;;;;;;8.45;3.10;;;;;;;;;;5069642;28;20060;-71
2021/04/25 14:42:58;;;;;;;7.15;3.38;;;;;;;;;;5070962;28;20101;-73
2021/04/25 14:45:25;;;;;;;6.38;3.30;;;;;;;;;;5086061;28;20054;-71
2021/04/25 14:47:54;;;;;;;6.75;3.42;;;;;;;;;;5077722;28;20033;-71